Página principal
METAR-TAF:

METAR-TAF

Aeroportos :

Aeroporto Douglas-Charles

Marigot, Dominica

latitude: 15-32N, longitude: 061-18W, altura: 13 m

Observação actual do tempo

O boletim foi feito há 56 minutos, às 00:00 UTC
Vento 2 kt com direcção variável
Temperatura 25°C
Humidade 100%
Pressão 1014 hPa
Visibilidade 10 km ou mais
Nuvens fragmentadasa uma altura de 1700 ft

METAR: TDPD 040000Z VRB02KT 9999 BKN017 25/25 Q1014

Hora: 20:56 (00:56 UTC)

Previsão

O boletim foi feito há 7 horas e 56 minutos, às 17:00 UTC
Previsão válida de 03 às 18 UTC a 04 às 18 UTC
Vento 10 kt de es-sudeste
Visibilidade 10 km ou mais
Nuvens dispersasa uma altura de 1800 ft
Probabilidade 40% :
Temporariamente
de 03 às 20 UTC a 04 às 03 UTC
Nuvens fragmentadasa uma altura de 1500 ft

TAF: TDPD 031700Z 0318/0418 11010KT 9999 SCT018 PROB40 TEMPO 0320/0403 BKN015

Observações e previsões do tempo de mais de 4000 aeroportos (mensagens METAR e TAF).

As estações disponíveis são os pontos amarelos e vermelhos sobre o mapa.

Mova o rato sobre o mapa para ver o nome da estação.

Depois clique no ponto para visualizar as observações e previsões meteorológicas.

Para alterar o mapa : clique nos botões verdes com uma cruz preta para aumentar o zoom; no botão verde com uma pitada de zoom; ou nas setas verdes para mapas adjacentes.


METAR-TAF: